createdAt,value
2023-03-29T00:00:38.298Z,0.0000
2023-03-29T00:02:41.472Z,0.0000
2023-03-29T00:03:43.047Z,0.0000
2023-03-29T00:04:43.004Z,0.0000
2023-03-29T00:05:43.039Z,0.0000
2023-03-29T00:06:43.049Z,0.0000
2023-03-29T00:07:44.268Z,0.0000
2023-03-29T00:08:44.394Z,0.0000
2023-03-29T00:09:45.642Z,0.0000
2023-03-29T00:10:45.732Z,0.0000
2023-03-29T00:11:46.953Z,0.0000
2023-03-29T00:12:48.283Z,0.0000
2023-03-29T00:13:49.526Z,0.0000
2023-03-29T00:14:50.929Z,0.0000
2023-03-29T00:15:52.111Z,0.0000
2023-03-29T00:16:53.690Z,0.0000
2023-03-29T00:17:55.082Z,0.0000
2023-03-29T00:18:55.172Z,0.0000
2023-03-29T00:19:56.427Z,0.0000
2023-03-29T00:20:57.813Z,0.0000
2023-03-29T00:21:59.037Z,0.0000
2023-03-29T00:22:59.476Z,0.0000
2023-03-29T00:24:00.674Z,0.0000
2023-03-29T00:25:00.714Z,0.0000
2023-03-29T00:26:02.031Z,0.0000
2023-03-29T00:27:03.565Z,0.0000
2023-03-29T00:28:04.854Z,0.0000
2023-03-29T00:29:06.219Z,0.0000
2023-03-29T00:30:07.429Z,0.0000
2023-03-29T00:31:08.898Z,0.0000
2023-03-29T00:32:10.207Z,0.0000
2023-03-29T00:33:10.357Z,0.0000
2023-03-29T00:34:11.622Z,0.0000
2023-03-29T00:35:11.631Z,0.0000
2023-03-29T00:36:12.907Z,0.0000
2023-03-29T00:37:12.974Z,0.0000
2023-03-29T00:38:14.181Z,0.0000
2023-03-29T00:39:15.492Z,0.0000
2023-03-29T00:40:16.803Z,0.0000
2023-03-29T00:41:17.186Z,0.0000
2023-03-29T00:42:18.386Z,0.0000
2023-03-29T00:43:18.479Z,0.0000
2023-03-29T00:44:19.791Z,0.0000
2023-03-29T00:45:21.228Z,0.0000
2023-03-29T00:46:22.659Z,0.0000
2023-03-29T00:47:22.957Z,0.0000
2023-03-29T00:48:24.369Z,0.0000
2023-03-29T00:49:24.369Z,0.0000
2023-03-29T00:50:25.571Z,0.0000
2023-03-29T00:51:26.956Z,0.0000
2023-03-29T00:52:28.231Z,0.0000
2023-03-29T00:53:29.679Z,0.0000
2023-03-29T00:54:30.959Z,0.0000
2023-03-29T00:55:32.392Z,0.0000
2023-03-29T00:56:32.488Z,0.0000
2023-03-29T00:57:34.012Z,0.0000
2023-03-29T00:58:35.246Z,0.0000
2023-03-29T00:59:36.724Z,0.0000
2023-03-29T01:00:38.048Z,0.0000
2023-03-29T01:01:38.179Z,0.0000
2023-03-29T01:02:38.456Z,0.0000
2023-03-29T01:03:40.163Z,0.0000
2023-03-29T01:04:41.444Z,0.0000
2023-03-29T01:05:42.750Z,0.0000
2023-03-29T01:06:43.864Z,0.0000
2023-03-29T01:07:44.524Z,0.0000
2023-03-29T01:08:45.745Z,0.0000
2023-03-29T01:09:45.852Z,0.0000
2023-03-29T01:10:47.126Z,0.0000
2023-03-29T01:11:48.483Z,0.0000
2023-03-29T01:12:49.715Z,0.0000
2023-03-29T01:13:51.205Z,0.0000
2023-03-29T01:14:52.484Z,0.0000
2023-03-29T01:15:53.932Z,0.0000
2023-03-29T01:16:55.338Z,0.0000
2023-03-29T01:17:55.683Z,0.0000
2023-03-29T01:18:55.798Z,0.0000
2023-03-29T01:29:06.493Z,0.0000
2023-03-29T01:30:07.869Z,0.0000
2023-03-29T01:31:09.164Z,0.0000
2023-03-29T01:32:09.230Z,0.0000
2023-03-29T01:33:10.549Z,0.0000
2023-03-29T01:34:11.913Z,0.0000
2023-03-29T01:35:11.990Z,0.0000
2023-03-29T01:36:13.538Z,0.0000
2023-03-29T01:37:14.756Z,0.0000
2023-03-29T01:38:16.127Z,0.0000
2023-03-29T01:39:17.396Z,0.0000
2023-03-29T01:40:18.736Z,0.0000
2023-03-29T01:41:20.038Z,0.0000
2023-03-29T01:42:21.529Z,0.0000
2023-03-29T01:43:23.553Z,0.0000
2023-03-29T01:44:23.385Z,0.0000
2023-03-29T01:45:24.715Z,0.0000
2023-03-29T01:46:24.817Z,0.0000
2023-03-29T01:47:24.892Z,0.0000
2023-03-29T01:48:26.106Z,0.0000
2023-03-29T01:49:27.413Z,0.0000
2023-03-29T01:50:28.627Z,0.0000
2023-03-29T01:51:29.950Z,0.0000
2023-03-29T01:52:31.202Z,0.0000
2023-03-29T01:53:31.245Z,0.0000
2023-03-29T01:54:32.612Z,0.0000
2023-03-29T02:04:41.706Z,0.0000
2023-03-29T02:05:41.763Z,0.0000
2023-03-29T02:06:42.986Z,0.0000
2023-03-29T02:07:44.301Z,0.0000
2023-03-29T02:08:45.526Z,0.0000
2023-03-29T02:09:45.589Z,0.0000
2023-03-29T02:10:45.714Z,0.0000
2023-03-29T02:11:47.163Z,0.0000
2023-03-29T02:12:48.534Z,0.0000
2023-03-29T02:13:48.471Z,0.0000
2023-03-29T02:14:48.550Z,0.0000
2023-03-29T02:15:50.041Z,0.0000
2023-03-29T02:16:50.082Z,0.0000
2023-03-29T02:17:51.428Z,0.0000
2023-03-29T02:18:51.702Z,0.0000
2023-03-29T02:19:53.069Z,0.0000
2023-03-29T02:20:53.159Z,0.0000
2023-03-29T02:21:53.144Z,0.0000
2023-03-29T02:22:54.438Z,0.0000
2023-03-29T02:28:59.466Z,0.0000
2023-03-29T02:29:59.500Z,0.0000
2023-03-29T02:31:01.045Z,0.0000
2023-03-29T02:32:01.704Z,0.0000
2023-03-29T02:33:01.777Z,0.0000
2023-03-29T02:34:01.870Z,0.0000
2023-03-29T02:35:01.908Z,0.0000
2023-03-29T02:36:02.023Z,0.0000
2023-03-29T02:37:02.130Z,0.0000
2023-03-29T02:38:03.530Z,0.0000
2023-03-29T02:39:03.684Z,0.0000
2023-03-29T02:40:04.986Z,0.0000
2023-03-29T02:41:06.493Z,0.0000
2023-03-29T02:42:07.785Z,0.0000
2023-03-29T02:44:09.035Z,0.0000
2023-03-29T02:45:10.376Z,0.0000
2023-03-29T02:46:10.472Z,0.0000
2023-03-29T02:47:10.558Z,0.0000
2023-03-29T02:48:10.669Z,0.0000
2023-03-29T02:49:12.038Z,0.0000
2023-03-29T02:50:13.702Z,0.0000
2023-03-29T02:51:15.916Z,0.0000
2023-03-29T02:52:15.922Z,0.0000
2023-03-29T02:53:15.955Z,0.0000
2023-03-29T02:54:17.338Z,0.0000
2023-03-29T02:55:17.423Z,0.0000
2023-03-29T02:56:18.638Z,0.0000
2023-03-29T02:57:20.221Z,0.0000
2023-03-29T02:58:20.236Z,0.0000
2023-03-29T02:59:21.580Z,0.0000
2023-03-29T03:00:21.672Z,0.0000
2023-03-29T03:01:23.092Z,0.0000
2023-03-29T03:02:23.335Z,0.0000
2023-03-29T03:03:23.954Z,0.0000
2023-03-29T03:04:24.308Z,0.0000
2023-03-29T03:05:25.614Z,0.0000
2023-03-29T03:06:25.752Z,0.0000
2023-03-29T03:07:27.024Z,0.0000
2023-03-29T03:09:29.787Z,0.0000
2023-03-29T03:11:31.124Z,0.0000
2023-03-29T03:12:31.477Z,0.0000
2023-03-29T03:13:32.753Z,0.0000
2023-03-29T03:14:33.101Z,0.0000
2023-03-29T03:15:34.401Z,0.0000
2023-03-29T03:16:34.865Z,0.0000
2023-03-29T03:17:34.856Z,0.0000
2023-03-29T03:18:36.149Z,0.0000
2023-03-29T03:19:36.286Z,0.0000
2023-03-29T03:20:37.553Z,0.0000
2023-03-29T03:21:38.538Z,0.0000
2023-03-29T03:22:39.867Z,0.0000
2023-03-29T03:23:39.981Z,0.0000
2023-03-29T03:27:42.479Z,0.0000
2023-03-29T03:28:42.539Z,0.0000
2023-03-29T03:29:43.922Z,0.0000
2023-03-29T03:30:44.086Z,0.0000
2023-03-29T03:31:44.191Z,0.0000
2023-03-29T03:32:44.304Z,0.0000
2023-03-29T03:33:45.638Z,0.0000
2023-03-29T03:34:47.182Z,0.0000
2023-03-29T03:35:48.512Z,0.0000
2023-03-29T03:36:48.633Z,0.0000
2023-03-29T03:37:49.942Z,0.0000
2023-03-29T03:38:51.442Z,0.0000
2023-03-29T03:39:52.731Z,0.0000
2023-03-29T03:41:55.400Z,0.0000
2023-03-29T03:42:55.759Z,0.0000
2023-03-29T03:43:56.277Z,0.0000
2023-03-29T03:44:56.324Z,0.0000
2023-03-29T03:45:56.586Z,0.0000
2023-03-29T03:46:57.090Z,0.0000
2023-03-29T03:47:57.200Z,0.0000
2023-03-29T03:48:57.383Z,0.0000
2023-03-29T03:49:57.417Z,0.0000
2023-03-29T03:50:57.441Z,0.0000
2023-03-29T03:51:58.788Z,0.0000
2023-03-29T03:52:58.928Z,0.0000
2023-03-29T03:54:00.250Z,0.0000
2023-03-29T03:55:01.789Z,0.0000
2023-03-29T03:56:03.148Z,0.0000
2023-03-29T03:57:04.825Z,0.0000
2023-03-29T03:58:06.109Z,0.0000
2023-03-29T03:59:06.341Z,0.0000
2023-03-29T04:00:07.692Z,0.0000
2023-03-29T04:01:07.680Z,0.0000
2023-03-29T04:02:07.824Z,0.0000
2023-03-29T04:03:08.093Z,0.0000
2023-03-29T04:04:09.167Z,0.0000
2023-03-29T04:05:09.459Z,0.0000
2023-03-29T04:06:09.495Z,0.0000
2023-03-29T04:07:10.744Z,0.0000
2023-03-29T04:08:12.158Z,0.0000
2023-03-29T04:09:13.480Z,0.0000
2023-03-29T04:10:13.640Z,0.0000
2023-03-29T04:11:14.909Z,0.0000
2023-03-29T04:12:15.031Z,0.0000
2023-03-29T04:13:16.337Z,0.0000
2023-03-29T04:14:17.840Z,0.0000
2023-03-29T04:15:17.855Z,0.0000
2023-03-29T04:16:18.067Z,0.0000
2023-03-29T04:17:18.189Z,0.0000
2023-03-29T04:18:18.770Z,0.0000
2023-03-29T04:19:20.085Z,0.0000
2023-03-29T04:20:20.389Z,0.0000
2023-03-29T04:21:21.659Z,0.0000
2023-03-29T04:22:21.915Z,0.0000
2023-03-29T04:34:35.111Z,0.0000
2023-03-29T04:35:35.523Z,0.0000
2023-03-29T04:36:36.744Z,0.0000
2023-03-29T04:37:38.372Z,0.0000
2023-03-29T04:38:38.367Z,0.0000
2023-03-29T04:39:38.593Z,0.0000
2023-03-29T04:40:38.681Z,0.0000
2023-03-29T04:41:40.040Z,0.0000
2023-03-29T04:42:40.082Z,0.0000
2023-03-29T04:43:41.452Z,0.0000
2023-03-29T04:44:42.981Z,0.0000
2023-03-29T04:45:43.017Z,0.0000
2023-03-29T04:46:43.247Z,0.0000
2023-03-29T04:47:43.281Z,0.0000
2023-03-29T04:48:43.308Z,0.0000
2023-03-29T04:49:43.433Z,0.0000
2023-03-29T04:50:44.674Z,0.0000
2023-03-29T04:51:44.998Z,0.0000
2023-03-29T04:52:46.546Z,0.0000
2023-03-29T04:53:46.669Z,0.0000
2023-03-29T04:54:47.978Z,0.0000
2023-03-29T04:55:48.089Z,0.0000
2023-03-29T04:56:49.431Z,0.0000
2023-03-29T04:57:49.512Z,0.0000
2023-03-29T04:58:50.772Z,0.0000
2023-03-29T04:59:52.113Z,0.0000
2023-03-29T05:00:52.280Z,0.0000
2023-03-29T05:01:52.348Z,0.0000
2023-03-29T05:02:52.650Z,0.0000
2023-03-29T05:03:52.761Z,0.0000
2023-03-29T05:04:53.157Z,0.0000
2023-03-29T05:05:53.240Z,0.0000
2023-03-29T05:06:53.422Z,0.0000
2023-03-29T05:07:54.833Z,0.0000
2023-03-29T05:08:55.226Z,0.0000
2023-03-29T05:09:55.460Z,2.6786
2023-03-29T05:10:55.773Z,5.6250
2023-03-29T05:11:55.983Z,5.6250
2023-03-29T05:12:56.097Z,10.7143
2023-03-29T05:13:56.218Z,11.2500
2023-03-29T05:14:56.463Z,12.1875
2023-03-29T05:15:57.360Z,16.8750
2023-03-29T05:16:57.594Z,16.8750
2023-03-29T05:17:58.186Z,16.8750
2023-03-29T05:18:58.585Z,16.8750
2023-03-29T05:19:59.171Z,16.8750
2023-03-29T05:20:59.878Z,22.5000
2023-03-29T05:22:00.594Z,22.5000
2023-03-29T05:23:00.642Z,22.5000
2023-03-29T05:24:01.941Z,21.4535
2023-03-29T05:25:02.110Z,16.8750
2023-03-29T05:26:03.451Z,16.8750
2023-03-29T05:27:03.610Z,18.0804
2023-03-29T05:28:03.679Z,19.8214
2023-03-29T05:29:03.640Z,19.5536
2023-03-29T05:30:03.777Z,22.5000
2023-03-29T05:31:04.273Z,22.5000
2023-03-29T05:32:04.853Z,22.5000
2023-03-29T05:33:04.885Z,22.5000
2023-03-29T05:34:06.363Z,27.2093
2023-03-29T05:35:06.472Z,28.1250
2023-03-29T05:36:06.823Z,32.1429
2023-03-29T05:37:07.086Z,35.4911
2023-03-29T05:38:07.248Z,42.7232
2023-03-29T05:39:07.323Z,48.8839
2023-03-29T05:40:08.127Z,50.6250
2023-03-29T05:41:09.284Z,50.6250
2023-03-29T05:42:09.579Z,50.6250
2023-03-29T05:43:09.458Z,50.6250
2023-03-29T05:44:09.624Z,45.1339
2023-03-29T05:46:10.862Z,59.7820
2023-03-29T05:47:11.214Z,65.7589
2023-03-29T05:48:11.290Z,67.5000
2023-03-29T05:49:11.546Z,62.1429
2023-03-29T05:50:11.678Z,61.8750
2023-03-29T05:51:12.552Z,66.8140
2023-03-29T05:52:12.717Z,76.4732
2023-03-29T05:53:12.874Z,84.1071
2023-03-29T05:54:14.248Z,90.0000
2023-03-29T05:55:14.381Z,94.0179
2023-03-29T05:56:14.494Z,96.1607
2023-03-29T05:57:14.706Z,104.0625
2023-03-29T05:58:14.870Z,106.8750
2023-03-29T05:59:15.033Z,100.1786
2023-03-29T06:00:15.058Z,92.2768
2023-03-29T06:01:15.810Z,90.0000
2023-03-29T06:02:15.952Z,93.4821
2023-03-29T06:03:22.553Z,104.1964
2023-03-29T06:04:23.155Z,112.5000
2023-03-29T06:05:23.331Z,113.0357
2023-03-29T06:06:24.783Z,109.3605
2023-03-29T06:07:24.939Z,106.8750
2023-03-29T06:08:25.071Z,105.6696
2023-03-29T06:09:25.355Z,95.7589
2023-03-29T06:16:29.731Z,123.4884
2023-03-29T06:17:30.226Z,147.9911
2023-03-29T06:18:30.814Z,181.4732
2023-03-29T06:19:30.843Z,216.9643
2023-03-29T06:20:30.931Z,246.1607
2023-03-29T06:21:31.127Z,270.9375
2023-03-29T06:22:32.498Z,283.3929
2023-03-29T06:23:32.572Z,281.2500
2023-03-29T06:24:33.023Z,285.1339
2023-03-29T06:25:34.114Z,289.9554
2023-03-29T06:26:34.399Z,297.1875
2023-03-29T06:27:34.497Z,284.8661
2023-03-29T06:28:34.540Z,259.9554
2023-03-29T06:29:34.786Z,253.3929
2023-03-29T06:30:35.747Z,240.2679
2023-03-29T06:31:36.531Z,210.0000
2023-03-29T06:32:36.874Z,209.4643
2023-03-29T06:33:37.047Z,234.5089
2023-03-29T06:34:38.576Z,253.2589
2023-03-29T06:35:37.599Z,266.7073
2023-03-29T06:36:37.692Z,280.7143
2023-03-29T06:37:37.910Z,269.4643
2023-03-29T06:38:37.927Z,248.1696
2023-03-29T06:39:38.173Z,230.4911
2023-03-29T06:40:38.203Z,219.9107
2023-03-29T06:41:38.231Z,227.2768
2023-03-29T06:42:38.379Z,230.6250
2023-03-29T06:43:38.393Z,229.6875
2023-03-29T06:44:38.414Z,221.7857
2023-03-29T06:45:38.668Z,221.1161
2023-03-29T06:46:39.019Z,224.1964
2023-03-29T06:47:39.086Z,210.4018
2023-03-29T06:48:39.362Z,198.7500
2023-03-29T06:49:39.387Z,193.6607
2023-03-29T06:50:39.493Z,202.5000
2023-03-29T06:51:39.532Z,209.4643
2023-03-29T06:52:39.731Z,222.8571
2023-03-29T06:53:41.104Z,247.5000
2023-03-29T06:54:41.260Z,281.6518
2023-03-29T06:55:41.661Z,308.9732
2023-03-29T06:56:43.121Z,313.4302
2023-03-29T06:57:43.635Z,298.3929
2023-03-29T06:58:43.681Z,272.2768
2023-03-29T06:59:43.955Z,244.6875
2023-03-29T07:00:44.403Z,232.3661
2023-03-29T07:01:44.854Z,239.0625
2023-03-29T07:02:44.906Z,262.2321
2023-03-29T07:03:46.732Z,303.2012
2023-03-29T07:04:47.149Z,336.6964
2023-03-29T07:05:47.428Z,330.4018
2023-03-29T07:06:47.476Z,312.0536
2023-03-29T07:07:47.764Z,309.3750
2023-03-29T07:08:47.956Z,309.3750
2023-03-29T07:09:48.006Z,308.9732
2023-03-29T07:10:48.121Z,298.9286
2023-03-29T07:11:48.332Z,284.0625
2023-03-29T07:12:48.516Z,276.4286
2023-03-29T07:13:49.043Z,289.0179
2023-03-29T07:14:49.124Z,301.3393
2023-03-29T07:15:49.242Z,314.8661
2023-03-29T07:16:49.326Z,344.7321
2023-03-29T07:17:49.548Z,374.7321
2023-03-29T07:18:49.565Z,395.8929
2023-03-29T07:19:49.636Z,420.1339
2023-03-29T07:20:49.815Z,471.9643
2023-03-29T07:21:49.852Z,527.8125
2023-03-29T07:22:49.862Z,568.5268
2023-03-29T07:23:50.079Z,591.5625
2023-03-29T07:24:50.085Z,597.8571
2023-03-29T07:25:50.114Z,607.5000
2023-03-29T07:27:03.261Z,609.6429
2023-03-29T07:27:50.684Z,567.8289
2023-03-29T07:28:50.730Z,510.2679
2023-03-29T07:29:50.877Z,452.1429
2023-03-29T07:30:51.569Z,415.5640
2023-03-29T07:31:51.778Z,410.4911
2023-03-29T07:32:52.234Z,405.1339
2023-03-29T07:33:53.332Z,406.2054
2023-03-29T07:34:53.446Z,405.2679
2023-03-29T07:35:53.518Z,405.0000
2023-03-29T07:36:53.781Z,407.5446
2023-03-29T07:37:53.781Z,425.0893
2023-03-29T07:38:56.301Z,455.3571
2023-03-29T07:39:55.289Z,461.2500
2023-03-29T07:40:55.504Z,468.8839
2023-03-29T07:41:55.532Z,488.1696
2023-03-29T07:42:55.561Z,493.5268
2023-03-29T07:43:55.718Z,501.0268
2023-03-29T07:44:55.734Z,500.8929
2023-03-29T07:45:55.989Z,495.4018
2023-03-29T07:46:56.170Z,497.4107
2023-03-29T07:47:56.478Z,504.1071
2023-03-29T07:48:56.658Z,524.5982
2023-03-29T07:49:57.000Z,559.2857
2023-03-29T07:50:57.082Z,588.4821
2023-03-29T07:51:57.848Z,593.4375
2023-03-29T07:52:58.126Z,594.2411
2023-03-29T07:53:58.255Z,596.6518
2023-03-29T07:54:58.495Z,602.5446
2023-03-29T07:55:58.590Z,616.3393
2023-03-29T07:56:58.826Z,636.6964
2023-03-29T07:57:59.167Z,658.3929
2023-03-29T07:58:59.321Z,690.6696
2023-03-29T07:59:59.548Z,719.7321
2023-03-29T08:00:59.772Z,740.0893
2023-03-29T08:02:00.918Z,763.2589
2023-03-29T08:03:01.040Z,767.8125
2023-03-29T08:04:01.414Z,757.7679
2023-03-29T08:05:01.983Z,734.1964
2023-03-29T08:06:02.585Z,736.8750
2023-03-29T08:07:02.730Z,769.4196
2023-03-29T08:08:02.830Z,791.7857
2023-03-29T08:09:03.122Z,768.7500
2023-03-29T08:10:03.314Z,683.8393
2023-03-29T08:11:03.687Z,621.4286
2023-03-29T08:12:04.020Z,595.9821
2023-03-29T08:13:04.089Z,564.5089
2023-03-29T08:14:04.248Z,538.5268
2023-03-29T08:15:04.432Z,527.1429
2023-03-29T08:16:04.842Z,525.0000
2023-03-29T08:17:05.130Z,515.3571
2023-03-29T08:18:05.904Z,495.0000
2023-03-29T08:19:06.711Z,498.2143
2023-03-29T08:20:07.307Z,513.2072
2023-03-29T08:21:07.901Z,547.0982
2023-03-29T08:22:07.924Z,588.8839
2023-03-29T08:23:08.234Z,615.2679
2023-03-29T08:24:08.507Z,609.5089
2023-03-29T08:25:09.779Z,561.6768
2023-03-29T08:26:09.924Z,528.4821
2023-03-29T08:27:10.251Z,509.5982
2023-03-29T08:28:10.387Z,513.7500
2023-03-29T08:29:10.485Z,554.3304
2023-03-29T08:30:10.742Z,630.5357
2023-03-29T08:31:11.417Z,713.5714
2023-03-29T08:32:11.654Z,768.7500
2023-03-29T08:33:12.058Z,790.8482
2023-03-29T08:34:12.501Z,811.4732
2023-03-29T08:35:12.715Z,818.7054
2023-03-29T08:36:13.044Z,754.6875
2023-03-29T08:37:13.140Z,734.5982
2023-03-29T08:38:13.333Z,753.8839
2023-03-29T08:39:13.646Z,817.2321
2023-03-29T08:40:13.712Z,901.7411
2023-03-29T08:41:14.553Z,957.8571
2023-03-29T08:42:14.585Z,1049.5983
2023-03-29T08:43:14.662Z,1155.2678
2023-03-29T08:44:14.938Z,1233.8839
2023-03-29T08:45:15.006Z,1212.7233
2023-03-29T08:46:15.317Z,1226.5178
2023-03-29T08:47:16.202Z,1118.1697
2023-03-29T08:48:16.663Z,1112.9464
2023-03-29T08:49:16.830Z,1033.2589
2023-03-29T08:50:16.952Z,1020.9375
2023-03-29T08:51:18.016Z,1023.0804
2023-03-29T08:52:18.174Z,1036.2053
2023-03-29T08:53:19.409Z,1049.0625
2023-03-29T08:54:19.569Z,1080.9375
2023-03-29T08:55:19.904Z,1151.7858
2023-03-29T08:56:20.051Z,1145.8928
2023-03-29T08:57:20.710Z,1194.9695
2023-03-29T08:58:20.860Z,1370.2233
2023-03-29T08:59:21.318Z,1362.5892
2023-03-29T09:00:21.406Z,1346.1161
2023-03-29T09:01:21.521Z,1254.7767
2023-03-29T09:02:21.979Z,1266.1608
2023-03-29T09:03:22.492Z,1273.9286
2023-03-29T09:04:22.781Z,1278.2142
2023-03-29T09:05:22.947Z,1245.4017
2023-03-29T09:06:23.212Z,1250.2233
2023-03-29T09:07:26.463Z,1242.3214
2023-03-29T09:08:24.041Z,1229.7656
2023-03-29T09:09:25.004Z,1239.9108
2023-03-29T09:10:25.210Z,1222.0983
2023-03-29T09:11:25.512Z,1218.4822
2023-03-29T09:12:25.612Z,1207.7678
2023-03-29T09:13:25.935Z,1213.3928
2023-03-29T09:14:26.091Z,1219.5536
2023-03-29T09:15:26.395Z,1220.2233
2023-03-29T09:16:26.486Z,1229.8661
2023-03-29T09:17:27.128Z,1240.4464
2023-03-29T09:18:27.464Z,1225.3125
2023-03-29T09:19:27.659Z,1195.9822
2023-03-29T09:20:28.010Z,1156.2053
2023-03-29T09:21:28.217Z,1127.0089
2023-03-29T09:22:28.297Z,1103.3036
2023-03-29T09:23:28.542Z,1102.0983
2023-03-29T09:24:28.881Z,1107.9911
2023-03-29T09:25:29.094Z,1109.8661
2023-03-29T09:26:29.490Z,1123.6677
2023-03-29T09:27:29.750Z,1119.9108
2023-03-29T09:28:29.907Z,1102.3661
2023-03-29T09:29:31.238Z,1057.6406
2023-03-29T09:30:31.372Z,976.4732
2023-03-29T09:31:31.817Z,910.3125
2023-03-29T09:32:31.961Z,858.4821
2023-03-29T09:33:32.216Z,802.5000
2023-03-29T09:34:32.324Z,740.8929
2023-03-29T09:35:32.463Z,681.2946
2023-03-29T09:36:32.758Z,673.2589
2023-03-29T09:37:32.869Z,703.2589
2023-03-29T09:38:33.221Z,702.7232
2023-03-29T09:39:33.237Z,676.3393
2023-03-29T09:40:33.359Z,628.5268
2023-03-29T09:41:33.603Z,614.3304
2023-03-29T09:42:33.717Z,673.2589
2023-03-29T09:43:33.768Z,737.9464
2023-03-29T09:44:33.976Z,748.7946
2023-03-29T09:45:34.121Z,712.3661
2023-03-29T09:46:34.520Z,684.1071
2023-03-29T09:47:34.658Z,694.9554
2023-03-29T09:48:35.251Z,772.5000
2023-03-29T09:49:35.356Z,867.4554
2023-03-29T09:50:35.918Z,966.4638
2023-03-29T09:51:36.007Z,1062.9911
2023-03-29T09:52:36.315Z,1124.0625
2023-03-29T09:53:36.485Z,1148.0358
2023-03-29T09:54:36.809Z,1141.3392
2023-03-29T09:55:37.073Z,1110.1339
2023-03-29T09:56:37.338Z,1125.0000
2023-03-29T09:57:37.525Z,1209.2411
2023-03-29T09:58:37.894Z,1340.6250
2023-03-29T09:59:38.017Z,1396.4733
2023-03-29T10:00:38.141Z,1405.7142
2023-03-29T10:01:38.794Z,1344.2411
2023-03-29T10:02:39.302Z,1286.9197
2023-03-29T10:03:39.529Z,1277.8125
2023-03-29T10:04:39.994Z,1337.6786
2023-03-29T10:05:40.122Z,1355.2233
2023-03-29T10:06:40.214Z,1401.2947
2023-03-29T10:07:40.434Z,1494.3750
2023-03-29T10:08:41.838Z,1640.0892
2023-03-29T10:09:42.152Z,1841.5178
2023-03-29T10:10:42.567Z,1866.5625
2023-03-29T10:11:42.893Z,1987.3661
2023-03-29T10:12:43.265Z,2016.4286
2023-03-29T10:13:43.366Z,1874.3303
2023-03-29T10:14:43.532Z,1829.5983
2023-03-29T10:15:44.550Z,1925.6250
2023-03-29T10:16:44.775Z,1798.1250
2023-03-29T10:17:45.143Z,1889.0625
2023-03-29T10:18:45.370Z,1957.5000
2023-03-29T10:19:45.650Z,1731.5625
2023-03-29T10:20:45.854Z,1945.4464
2023-03-29T10:21:46.156Z,2319.3750
2023-03-29T10:22:46.300Z,2357.9465
2023-03-29T10:23:46.763Z,2395.3125
2023-03-29T10:24:46.862Z,2468.7053
2023-03-29T10:25:47.135Z,1873.7947
2023-03-29T10:26:47.320Z,1588.5267
2023-03-29T10:27:47.827Z,1593.7500
2023-03-29T10:28:48.049Z,1670.4911
2023-03-29T10:29:48.413Z,1784.8661
2023-03-29T10:30:48.690Z,1936.8750
2023-03-29T10:31:49.257Z,2081.7856
2023-03-29T10:32:49.804Z,1977.0536
2023-03-29T10:33:50.038Z,1922.9464
2023-03-29T10:34:50.515Z,2477.9465
2023-03-29T10:35:50.738Z,2410.1785
2023-03-29T10:36:51.103Z,3064.9553
2023-03-29T10:37:51.581Z,2818.9285
2023-03-29T10:38:52.004Z,3730.4465
2023-03-29T10:39:52.292Z,2511.9644
2023-03-29T10:40:52.723Z,3579.7769
2023-03-29T10:41:53.114Z,4281.5625
2023-03-29T10:42:53.226Z,3675.8035
2023-03-29T10:43:54.376Z,2372.4106
2023-03-29T10:44:54.835Z,1552.5000
2023-03-29T10:45:55.522Z,1558.9286
2023-03-29T10:46:56.782Z,1789.0178
2023-03-29T10:47:57.117Z,1853.8392
2023-03-29T10:48:57.520Z,1599.1072
2023-03-29T10:49:58.652Z,1571.2500
2023-03-29T10:50:59.032Z,3227.2769
2023-03-29T10:51:59.219Z,3929.0625
2023-03-29T10:52:59.806Z,2191.2053
2023-03-29T10:54:00.048Z,1644.7767
2023-03-29T10:55:00.563Z,1549.2858
2023-03-29T10:56:00.757Z,1572.1875
2023-03-29T10:57:01.139Z,1532.0089
2023-03-29T10:58:01.588Z,1365.5358
2023-03-29T10:59:01.811Z,1130.8928
2023-03-29T11:00:02.265Z,958.6607
2023-03-29T11:01:02.778Z,808.3929
2023-03-29T11:02:03.539Z,728.4375
2023-03-29T11:03:04.236Z,709.6875
2023-03-29T11:04:05.488Z,727.0982
2023-03-29T11:05:06.067Z,764.1964
2023-03-29T11:06:06.441Z,828.4821
2023-03-29T11:07:06.858Z,923.8393
2023-03-29T11:08:07.086Z,1056.4286
2023-03-29T11:09:07.440Z,1162.5000
2023-03-29T11:10:07.870Z,1249.1517
2023-03-29T11:11:08.348Z,1404.6428
2023-03-29T11:12:15.583Z,1613.4375
2023-03-29T11:13:09.668Z,1860.0507
2023-03-29T11:14:10.476Z,2015.5336
2023-03-29T11:15:10.662Z,2128.5269
2023-03-29T11:16:11.089Z,1926.9642
2023-03-29T11:17:11.330Z,1885.0447
2023-03-29T11:18:11.722Z,1978.1250
2023-03-29T11:19:12.106Z,2063.4375
2023-03-29T11:20:12.530Z,2076.1606
2023-03-29T11:21:12.928Z,2127.1875
2023-03-29T11:22:13.101Z,2181.5625
2023-03-29T11:23:13.506Z,2293.5269
2023-03-29T11:24:13.708Z,2431.3394
2023-03-29T11:25:14.124Z,1962.7233
2023-03-29T11:26:14.490Z,2011.0714
2023-03-29T11:27:14.704Z,2155.8481
2023-03-29T11:28:15.133Z,2340.4019
2023-03-29T11:29:15.289Z,2354.0625
2023-03-29T11:30:15.950Z,2161.6072
2023-03-29T11:31:16.793Z,1960.7142
2023-03-29T11:32:17.112Z,1866.5625
2023-03-29T11:33:18.039Z,1887.8572
2023-03-29T11:34:18.301Z,1945.1786
2023-03-29T11:35:18.678Z,2034.2411
2023-03-29T11:36:19.200Z,2133.7500
2023-03-29T11:37:19.416Z,2156.2500
2023-03-29T11:38:19.940Z,2134.8215
2023-03-29T11:39:20.404Z,1956.9512
2023-03-29T11:40:20.691Z,2100.1340
2023-03-29T11:41:21.109Z,2980.9822
2023-03-29T11:42:21.317Z,3940.7144
2023-03-29T11:43:21.629Z,3970.1785
2023-03-29T11:44:22.008Z,4017.1875
2023-03-29T11:45:22.255Z,3967.7678
2023-03-29T11:46:22.847Z,3818.1697
2023-03-29T11:47:23.511Z,2721.8303
2023-03-29T11:48:24.112Z,2635.9822
2023-03-29T11:49:24.546Z,3691.8750
2023-03-29T11:50:25.975Z,2081.3840
2023-03-29T11:51:26.154Z,3649.9553
2023-03-29T11:52:26.509Z,3860.0894
2023-03-29T11:53:26.769Z,3264.5090
2023-03-29T11:54:27.164Z,3156.5625
2023-03-29T11:55:27.979Z,1969.6875
2023-03-29T11:56:28.253Z,1604.1964
2023-03-29T11:57:28.809Z,1570.9822
2023-03-29T11:58:29.373Z,1541.9197
2023-03-29T11:59:29.667Z,1659.7767
2023-03-29T12:00:30.039Z,2424.3750
2023-03-29T12:01:30.484Z,2211.1606
2023-03-29T12:02:31.249Z,1675.3125
2023-03-29T12:03:31.911Z,1778.1697
2023-03-29T12:04:33.120Z,2037.9375
2023-03-29T12:05:33.531Z,2152.3660
2023-03-29T12:06:33.786Z,3399.6428
2023-03-29T12:07:34.205Z,2874.1072
2023-03-29T12:08:34.539Z,2591.1160
2023-03-29T12:09:34.731Z,1585.9822
2023-03-29T12:10:35.177Z,1632.5892
2023-03-29T12:11:35.352Z,1622.0089
2023-03-29T12:12:36.280Z,1605.0000
2023-03-29T12:13:36.669Z,1499.7322
2023-03-29T12:14:37.348Z,1213.6608
2023-03-29T12:15:37.791Z,1139.0625
2023-03-29T12:16:38.104Z,1115.3572
2023-03-29T12:17:38.739Z,1090.0447
2023-03-29T12:18:39.691Z,1033.5267
2023-03-29T12:19:42.658Z,966.9643
2023-03-29T12:20:41.183Z,898.5938
2023-03-29T12:21:42.065Z,844.4196
2023-03-29T12:22:42.531Z,786.1607
2023-03-29T12:23:42.711Z,745.9821
2023-03-29T12:24:43.064Z,724.5536
2023-03-29T12:25:43.669Z,729.4665
2023-03-29T12:26:43.927Z,760.0446
2023-03-29T12:27:44.286Z,807.7232
2023-03-29T12:28:44.651Z,870.5357
2023-03-29T12:29:44.954Z,928.1250
2023-03-29T12:30:45.358Z,985.8482
2023-03-29T12:31:45.868Z,1050.8036
2023-03-29T12:32:46.473Z,1103.7053
2023-03-29T12:33:46.883Z,1155.0000
2023-03-29T12:34:47.226Z,1198.1250
2023-03-29T12:35:47.535Z,1275.4017
2023-03-29T12:36:47.902Z,1302.8572
2023-03-29T12:37:48.140Z,1290.2678
2023-03-29T12:38:48.486Z,1308.2142
2023-03-29T12:39:48.898Z,1342.2322
2023-03-29T12:40:49.260Z,1418.4375
2023-03-29T12:41:49.584Z,1584.9108
2023-03-29T12:42:49.858Z,1778.0358
2023-03-29T12:43:50.317Z,1907.5447
2023-03-29T12:44:50.866Z,1849.2858
2023-03-29T12:45:51.187Z,1757.5447
2023-03-29T12:46:52.293Z,1630.3125
2023-03-29T12:47:52.763Z,1866.0267
2023-03-29T12:48:53.207Z,3089.4644
2023-03-29T12:49:53.825Z,3754.4197
2023-03-29T12:50:54.051Z,3831.5625
2023-03-29T12:51:54.454Z,3278.8394